Time;durP1;ratioP1;P1;durP2;ratioP2;P2;SDS_P1;SDS_P2;PMS_P1;PMS_P2;Temp;Humidity;BMP_temperature;BMP_pressure;BME280_temperature;BME280_humidity;BME280_pressure;Samples;Min_cycle;Max_cycle;Signal;HPM_P1;HPM_P2
2022/03/19 03:21:39;;;;;;;17.60;4.72;;;;;;;;;;4993060;28;20046;-69
2022/03/19 03:24:06;;;;;;;19.65;5.38;;;;;;;;;;4991391;28;20058;-69
2022/03/19 03:26:32;;;;;;;17.95;4.85;;;;;;;;;;4996097;28;20046;-69
2022/03/19 03:28:58;;;;;;;14.52;5.07;;;;;;;;;;4995410;28;20038;-69
2022/03/19 03:31:25;;;;;;;21.02;5.15;;;;;;;;;;4995867;28;20551;-70
2022/03/19 03:33:51;;;;;;;19.42;4.90;;;;;;;;;;4994238;28;20043;-70
2022/03/19 03:36:17;;;;;;;20.00;5.90;;;;;;;;;;4994944;28;20035;-70
2022/03/19 03:38:43;;;;;;;21.60;5.60;;;;;;;;;;4995471;28;20049;-70
2022/03/19 03:41:09;;;;;;;20.20;5.93;;;;;;;;;;4994542;28;20038;-70
2022/03/19 03:43:35;;;;;;;20.92;6.22;;;;;;;;;;4977490;28;20046;-70
2022/03/19 03:46:01;;;;;;;14.80;5.60;;;;;;;;;;4996457;28;20069;-70
2022/03/19 03:48:27;;;;;;;18.48;5.15;;;;;;;;;;4991338;28;20089;-70
2022/03/19 03:50:55;;;;;;;19.85;5.53;;;;;;;;;;4995018;28;20057;-70
2022/03/19 03:53:23;;;;;;;18.35;4.97;;;;;;;;;;4994107;28;20042;-70
2022/03/19 03:55:49;;;;;;;16.55;5.28;;;;;;;;;;4994968;28;20404;-70
2022/03/19 03:58:15;;;;;;;16.67;5.68;;;;;;;;;;4976061;28;20046;-70
2022/03/19 04:00:41;;;;;;;15.55;5.85;;;;;;;;;;4993101;28;20050;-70
2022/03/19 04:03:07;;;;;;;18.02;5.70;;;;;;;;;;4991833;28;20058;-70
2022/03/19 04:05:33;;;;;;;16.35;5.80;;;;;;;;;;4996027;28;20042;-70
2022/03/19 04:08:00;;;;;;;21.30;5.53;;;;;;;;;;4982078;28;20102;-70
2022/03/19 04:10:26;;;;;;;16.80;5.65;;;;;;;;;;4958224;28;20047;-70
2022/03/19 04:12:52;;;;;;;18.35;5.20;;;;;;;;;;4972434;28;20054;-70
2022/03/19 04:15:18;;;;;;;21.15;6.13;;;;;;;;;;4959103;28;20778;-70
2022/03/19 04:17:44;;;;;;;18.75;5.63;;;;;;;;;;4942279;28;20493;-70
2022/03/19 04:20:11;;;;;;;19.90;6.15;;;;;;;;;;4956850;28;20516;-70
2022/03/19 04:22:38;;;;;;;21.23;6.45;;;;;;;;;;4974503;28;20070;-70
2022/03/19 04:25:04;;;;;;;19.52;6.07;;;;;;;;;;4974820;28;20046;-69
2022/03/19 04:27:30;;;;;;;15.80;5.60;;;;;;;;;;4973750;28;20492;-69
2022/03/19 04:29:56;;;;;;;20.55;5.38;;;;;;;;;;4975993;28;20043;-69
2022/03/19 04:32:22;;;;;;;18.35;5.57;;;;;;;;;;4957576;28;20515;-69
2022/03/19 04:34:48;;;;;;;18.50;6.00;;;;;;;;;;4974357;28;20042;-70
2022/03/19 04:37:14;;;;;;;22.13;6.10;;;;;;;;;;4974102;28;20046;-70
2022/03/19 04:39:40;;;;;;;22.27;6.03;;;;;;;;;;4955512;28;20043;-69
2022/03/19 04:42:06;;;;;;;21.92;6.22;;;;;;;;;;4972895;28;20061;-69
2022/03/19 04:44:32;;;;;;;22.20;6.32;;;;;;;;;;4973678;28;20093;-69
2022/03/19 04:46:58;;;;;;;26.23;6.53;;;;;;;;;;4974784;28;20082;-69
2022/03/19 04:49:24;;;;;;;22.33;6.32;;;;;;;;;;4972549;28;20081;-69
2022/03/19 04:51:50;;;;;;;20.02;6.18;;;;;;;;;;4966174;28;20039;-70
2022/03/19 04:54:17;;;;;;;21.48;6.55;;;;;;;;;;4962879;28;20039;-70
2022/03/19 04:56:43;;;;;;;18.92;6.38;;;;;;;;;;4965067;28;20058;-70
2022/03/19 04:59:11;;;;;;;18.13;6.20;;;;;;;;;;4962771;28;20190;-69
2022/03/19 05:01:39;;;;;;;19.48;6.53;;;;;;;;;;4968135;28;20050;-70
2022/03/19 05:04:05;;;;;;;19.60;5.43;;;;;;;;;;4948675;28;20047;-69
2022/03/19 05:06:31;;;;;;;18.45;6.57;;;;;;;;;;4969341;28;20405;-69
2022/03/19 05:11:42;;;;;;;22.10;6.72;;;;;;;;;;4969733;28;20050;-69
2022/03/19 05:14:09;;;;;;;22.83;6.82;;;;;;;;;;4973537;28;20042;-69
2022/03/19 05:16:35;;;;;;;19.80;6.28;;;;;;;;;;4973867;28;20397;-70
2022/03/19 05:19:01;;;;;;;22.70;7.60;;;;;;;;;;4974157;28;20122;-70
2022/03/19 05:21:27;;;;;;;22.83;7.70;;;;;;;;;;4971830;28;20138;-70
2022/03/19 05:23:53;;;;;;;20.67;7.10;;;;;;;;;;4971040;28;20134;-70
2022/03/19 05:26:20;;;;;;;17.90;6.88;;;;;;;;;;4973837;28;20039;-70
2022/03/19 05:28:47;;;;;;;20.23;7.20;;;;;;;;;;4973970;28;20383;-70
2022/03/19 05:31:13;;;;;;;21.13;6.93;;;;;;;;;;4973767;28;20050;-70
2022/03/19 05:36:26;;;;;;;19.45;7.40;;;;;;;;;;4972656;28;20504;-70
2022/03/19 05:38:53;;;;;;;28.52;7.78;;;;;;;;;;4972425;28;20519;-70
2022/03/19 05:41:19;;;;;;;25.80;7.50;;;;;;;;;;4972200;28;20042;-70
2022/03/19 05:43:45;;;;;;;19.38;7.15;;;;;;;;;;4973350;28;20069;-70
2022/03/19 05:46:11;;;;;;;21.20;7.60;;;;;;;;;;4972811;28;20046;-69
2022/03/19 05:48:37;;;;;;;21.98;7.35;;;;;;;;;;4972905;28;20500;-69
2022/03/19 05:51:05;;;;;;;19.30;7.25;;;;;;;;;;4957419;28;20118;-70
2022/03/19 05:53:31;;;;;;;21.23;7.40;;;;;;;;;;4972976;28;20089;-70
2022/03/19 05:55:57;;;;;;;20.20;7.22;;;;;;;;;;4956634;28;20093;-70
2022/03/19 05:58:23;;;;;;;23.67;7.72;;;;;;;;;;4971995;28;20050;-69
2022/03/19 06:00:49;;;;;;;21.67;7.30;;;;;;;;;;4973069;28;20039;-70
2022/03/19 06:03:15;;;;;;;21.77;6.88;;;;;;;;;;4961993;28;20045;-70
2022/03/19 06:05:41;;;;;;;21.85;7.50;;;;;;;;;;4973642;28;20069;-70
2022/03/19 06:08:07;;;;;;;26.08;7.10;;;;;;;;;;4972973;28;20129;-70
2022/03/19 06:10:35;;;;;;;24.60;7.25;;;;;;;;;;4973438;28;20046;-70
2022/03/19 06:13:02;;;;;;;20.67;7.20;;;;;;;;;;4973034;28;20059;-69
2022/03/19 06:15:28;;;;;;;21.88;6.95;;;;;;;;;;4973328;28;20039;-70
2022/03/19 06:17:54;;;;;;;20.17;7.00;;;;;;;;;;4971819;28;20058;-70
2022/03/19 06:20:22;;;;;;;21.85;6.93;;;;;;;;;;4954029;28;20054;-70
2022/03/19 06:22:49;;;;;;;21.95;6.90;;;;;;;;;;4971701;28;20101;-70
2022/03/19 06:25:15;;;;;;;17.83;6.45;;;;;;;;;;4971841;28;20078;-70
2022/03/19 06:27:41;;;;;;;21.92;6.40;;;;;;;;;;4973028;28;20038;-70
2022/03/19 06:30:08;;;;;;;20.33;6.90;;;;;;;;;;4954696;28;20069;-70
2022/03/19 06:32:36;;;;;;;20.45;5.90;;;;;;;;;;4954689;28;20051;-70
2022/03/19 06:35:02;;;;;;;16.33;6.00;;;;;;;;;;4972390;28;20043;-70
2022/03/19 06:37:29;;;;;;;23.15;6.07;;;;;;;;;;4973468;28;20035;-70
2022/03/19 06:39:57;;;;;;;24.60;7.32;;;;;;;;;;4973226;28;20046;-69
2022/03/19 06:42:23;;;;;;;23.33;6.25;;;;;;;;;;4974028;28;20046;-69
2022/03/19 06:44:49;;;;;;;20.20;5.78;;;;;;;;;;4972381;28;20107;-70
2022/03/19 06:47:15;;;;;;;32.22;10.90;;;;;;;;;;4972275;28;20042;-70
2022/03/19 06:49:41;;;;;;;24.77;11.00;;;;;;;;;;4972983;28;20051;-70
2022/03/19 06:52:09;;;;;;;18.40;7.13;;;;;;;;;;4973082;28;20039;-70
2022/03/19 06:54:36;;;;;;;23.05;6.35;;;;;;;;;;4972012;28;20519;-71
2022/03/19 06:57:02;;;;;;;21.58;6.38;;;;;;;;;;4973418;28;20141;-70
2022/03/19 06:59:28;;;;;;;22.65;6.75;;;;;;;;;;4971984;28;20050;-69
2022/03/19 07:01:55;;;;;;;21.85;7.55;;;;;;;;;;4972104;28;20389;-70
2022/03/19 07:04:21;;;;;;;24.95;10.32;;;;;;;;;;4971456;28;20539;-69
2022/03/19 07:06:47;;;;;;;25.13;14.20;;;;;;;;;;4971865;28;20054;-69
2022/03/19 07:09:13;;;;;;;21.65;10.32;;;;;;;;;;4973014;28;20047;-70
2022/03/19 07:11:39;;;;;;;23.80;8.85;;;;;;;;;;4971198;28;20066;-70
2022/03/19 07:14:05;;;;;;;22.00;9.57;;;;;;;;;;4955529;28;20512;-70
2022/03/19 07:16:31;;;;;;;22.92;12.10;;;;;;;;;;4955619;28;20047;-70
2022/03/19 07:18:57;;;;;;;23.92;8.82;;;;;;;;;;4971892;28;20047;-70
2022/03/19 07:21:24;;;;;;;21.83;8.48;;;;;;;;;;4973162;28;20117;-70
2022/03/19 07:23:50;;;;;;;20.65;7.07;;;;;;;;;;4966642;28;20050;-70
2022/03/19 07:26:16;;;;;;;17.63;6.70;;;;;;;;;;4973235;28;20039;-70
2022/03/19 07:28:43;;;;;;;22.73;6.82;;;;;;;;;;4973051;28;20050;-69
2022/03/19 07:31:09;;;;;;;20.73;7.40;;;;;;;;;;4972325;28;20364;-70
2022/03/19 07:33:35;;;;;;;19.23;6.90;;;;;;;;;;4972676;28;20047;-69
2022/03/19 07:36:04;;;;;;;19.15;6.47;;;;;;;;;;4976972;28;20050;-70
2022/03/19 07:38:31;;;;;;;16.20;6.25;;;;;;;;;;4976279;28;20472;-70
2022/03/19 07:43:43;;;;;;;26.02;9.80;;;;;;;;;;4976324;28;20050;-70
2022/03/19 07:46:09;;;;;;;21.75;8.25;;;;;;;;;;4974279;28;20058;-70
2022/03/19 07:48:35;;;;;;;18.88;6.05;;;;;;;;;;4975848;28;20046;-70
2022/03/19 07:51:01;;;;;;;20.13;6.90;;;;;;;;;;4976655;28;20039;-70
2022/03/19 07:53:27;;;;;;;17.85;6.70;;;;;;;;;;4959426;28;20110;-70
2022/03/19 07:55:56;;;;;;;20.70;7.15;;;;;;;;;;4975962;28;20417;-69
2022/03/19 07:58:22;;;;;;;16.30;6.78;;;;;;;;;;4976510;28;20046;-69
2022/03/19 08:00:48;;;;;;;16.25;6.13;;;;;;;;;;4958990;28;20051;-69
2022/03/19 08:03:14;;;;;;;19.40;6.60;;;;;;;;;;4976049;28;20101;-69
2022/03/19 08:05:41;;;;;;;16.38;5.70;;;;;;;;;;4976012;28;20050;-69
2022/03/19 08:08:07;;;;;;;17.15;5.97;;;;;;;;;;4976525;28;20043;-69
2022/03/19 08:10:34;;;;;;;18.92;5.45;;;;;;;;;;4976185;28;20054;-69
2022/03/19 08:13:04;;;;;;;19.80;5.97;;;;;;;;;;4975323;28;20075;-70
2022/03/19 08:15:31;;;;;;;19.70;5.15;;;;;;;;;;4975836;28;20066;-69
2022/03/19 08:17:57;;;;;;;14.93;5.05;;;;;;;;;;4975893;28;20038;-70
2022/03/19 08:20:23;;;;;;;20.65;5.38;;;;;;;;;;4975141;28;20051;-70
2022/03/19 08:22:49;;;;;;;17.20;5.43;;;;;;;;;;4975782;28;20153;-70
2022/03/19 08:25:15;;;;;;;18.52;6.05;;;;;;;;;;4975648;28;20035;-70
2022/03/19 08:27:41;;;;;;;18.77;5.20;;;;;;;;;;4976278;28;20046;-70
2022/03/19 08:30:08;;;;;;;14.15;4.80;;;;;;;;;;4975572;28;20404;-70
2022/03/19 08:32:34;;;;;;;15.60;4.60;;;;;;;;;;4958695;28;20043;-70
2022/03/19 08:35:00;;;;;;;24.40;7.57;;;;;;;;;;4975156;28;20051;-69
2022/03/19 08:37:26;;;;;;;19.05;4.90;;;;;;;;;;4975238;28;20515;-69
2022/03/19 08:42:38;;;;;;;16.83;5.07;;;;;;;;;;4974797;28;20496;-69
2022/03/19 08:45:04;;;;;;;18.08;4.95;;;;;;;;;;4974528;28;20042;-69
2022/03/19 08:47:30;;;;;;;16.50;4.50;;;;;;;;;;4974472;28;20050;-69
2022/03/19 08:49:56;;;;;;;17.73;4.65;;;;;;;;;;4974424;28;20051;-69
2022/03/19 08:52:22;;;;;;;18.00;4.80;;;;;;;;;;4975339;28;20059;-69
2022/03/19 08:54:48;;;;;;;18.52;4.22;;;;;;;;;;4975379;28;20142;-69
2022/03/19 08:57:14;;;;;;;20.95;4.13;;;;;;;;;;4975238;28;20054;-69
2022/03/19 08:59:40;;;;;;;14.95;4.15;;;;;;;;;;4975448;28;20043;-68
2022/03/19 09:02:06;;;;;;;18.40;4.28;;;;;;;;;;4975342;28;20134;-69
2022/03/19 09:04:32;;;;;;;18.55;4.38;;;;;;;;;;4957233;28;20046;-68
2022/03/19 09:06:59;;;;;;;16.30;3.92;;;;;;;;;;4975270;28;20596;-69
2022/03/19 09:09:25;;;;;;;17.25;4.18;;;;;;;;;;4975195;28;20504;-69
2022/03/19 09:11:51;;;;;;;19.20;4.65;;;;;;;;;;4975071;28;20137;-69
2022/03/19 09:14:18;;;;;;;17.73;4.40;;;;;;;;;;4974846;28;20125;-69
2022/03/19 09:16:44;;;;;;;13.98;3.88;;;;;;;;;;4957922;28;20054;-69
2022/03/19 09:19:10;;;;;;;19.73;4.30;;;;;;;;;;4957861;28;20042;-69
2022/03/19 09:21:37;;;;;;;19.77;5.43;;;;;;;;;;4974551;28;20066;-69
2022/03/19 09:24:04;;;;;;;15.10;4.75;;;;;;;;;;4974600;28;20043;-70
2022/03/19 09:26:30;;;;;;;16.17;4.22;;;;;;;;;;4974535;28;20516;-69
2022/03/19 09:28:57;;;;;;;17.70;4.15;;;;;;;;;;4974979;28;20050;-69
2022/03/19 09:31:24;;;;;;;16.35;4.07;;;;;;;;;;4974634;28;20042;-69
2022/03/19 09:33:50;;;;;;;16.90;4.22;;;;;;;;;;4974576;28;20137;-70
2022/03/19 09:36:16;;;;;;;18.92;3.72;;;;;;;;;;4974850;28;20493;-69
2022/03/19 09:38:42;;;;;;;16.23;4.13;;;;;;;;;;4974583;28;20394;-69
2022/03/19 09:41:08;;;;;;;15.77;3.38;;;;;;;;;;4974821;28;20077;-69
2022/03/19 09:43:35;;;;;;;15.07;3.35;;;;;;;;;;4974334;28;20039;-69
2022/03/19 09:46:03;;;;;;;14.27;3.22;;;;;;;;;;4974739;28;20093;-69
2022/03/19 09:48:29;;;;;;;13.15;3.63;;;;;;;;;;4974448;28;20457;-69
2022/03/19 09:50:55;;;;;;;14.10;3.42;;;;;;;;;;4973662;28;20043;-69
2022/03/19 09:53:25;;;;;;;16.67;3.22;;;;;;;;;;4974678;28;20046;-69
2022/03/19 09:55:56;;;;;;;13.05;3.25;;;;;;;;;;4955401;28;20141;-70
2022/03/19 09:58:22;;;;;;;13.85;2.92;;;;;;;;;;4966507;28;20078;-70
2022/03/19 10:00:49;;;;;;;12.13;2.80;;;;;;;;;;4956580;28;20047;-70
2022/03/19 10:03:15;;;;;;;16.00;3.40;;;;;;;;;;4974142;28;20058;-70
2022/03/19 10:08:36;;;;;;;11.88;3.13;;;;;;;;;;4958372;28;20072;-69
2022/03/19 10:11:06;;;;;;;12.15;2.85;;;;;;;;;;4973720;28;20046;-69
2022/03/19 10:13:32;;;;;;;15.73;3.20;;;;;;;;;;4974479;28;20039;-69
2022/03/19 10:15:58;;;;;;;12.27;3.20;;;;;;;;;;4973838;28;20046;-69
2022/03/19 10:18:28;;;;;;;11.63;3.00;;;;;;;;;;4974076;28;20047;-70
2022/03/19 10:20:54;;;;;;;19.50;2.90;;;;;;;;;;4973919;28;20108;-69
2022/03/19 10:23:33;;;;;;;10.55;2.33;;;;;;;;;;4973263;28;20047;-70
2022/03/19 10:26:00;;;;;;;11.63;2.90;;;;;;;;;;4973604;28;20517;-70
2022/03/19 10:28:30;;;;;;;9.32;2.35;;;;;;;;;;4974152;28;20038;-70
2022/03/19 10:30:56;;;;;;;11.43;2.28;;;;;;;;;;4973821;28;20404;-70
2022/03/19 10:33:25;;;;;;;11.80;2.67;;;;;;;;;;4974196;28;20412;-70
2022/03/19 10:35:51;;;;;;;10.77;2.97;;;;;;;;;;4973673;28;20508;-70
2022/03/19 10:38:25;;;;;;;13.15;3.25;;;;;;;;;;4973985;28;20041;-70
2022/03/19 10:40:52;;;;;;;17.45;5.18;;;;;;;;;;4956644;28;20109;-71
2022/03/19 10:43:18;;;;;;;17.15;4.53;;;;;;;;;;4973112;28;20055;-70
2022/03/19 10:45:47;;;;;;;14.07;3.92;;;;;;;;;;4974067;28;20070;-70
2022/03/19 10:48:18;;;;;;;12.35;3.22;;;;;;;;;;4973966;28;20053;-69
2022/03/19 10:50:44;;;;;;;15.02;4.82;;;;;;;;;;4956319;28;20488;-70
2022/03/19 10:53:10;;;;;;;10.40;3.20;;;;;;;;;;4973259;28;20047;-70
2022/03/19 10:55:36;;;;;;;13.20;4.10;;;;;;;;;;4973154;28;20053;-71
2022/03/19 10:58:02;;;;;;;9.00;2.00;;;;;;;;;;4973714;28;20050;-69
2022/03/19 11:00:28;;;;;;;9.38;2.05;;;;;;;;;;4973857;28;20049;-70
2022/03/19 11:02:57;;;;;;;9.90;2.47;;;;;;;;;;4973561;28;20121;-70
2022/03/19 11:05:25;;;;;;;10.00;2.13;;;;;;;;;;4973564;28;20049;-70
2022/03/19 11:07:51;;;;;;;9.27;2.17;;;;;;;;;;4973265;28;20043;-69
2022/03/19 11:10:21;;;;;;;8.95;1.77;;;;;;;;;;4959667;28;20480;-70
2022/03/19 11:12:52;;;;;;;7.30;1.67;;;;;;;;;;4976661;28;20052;-70
2022/03/19 11:15:19;;;;;;;9.13;2.15;;;;;;;;;;4976180;28;20126;-70
2022/03/19 11:17:48;;;;;;;6.53;1.80;;;;;;;;;;4976613;28;20042;-70
2022/03/19 11:20:14;;;;;;;6.53;1.77;;;;;;;;;;4943437;28;20086;-71
2022/03/19 11:22:56;;;;;;;10.80;2.10;;;;;;;;;;4977155;28;20051;-71
2022/03/19 11:25:31;;;;;;;8.05;1.90;;;;;;;;;;4976931;28;20195;-70
2022/03/19 11:28:03;;;;;;;10.05;2.28;;;;;;;;;;4959860;28;20049;-69
2022/03/19 11:30:30;;;;;;;10.70;2.08;;;;;;;;;;4976626;28;20046;-70
2022/03/19 11:32:59;;;;;;;6.40;2.00;;;;;;;;;;4977197;28;20121;-71
2022/03/19 11:35:26;;;;;;;8.90;1.73;;;;;;;;;;4977470;28;20035;-71
2022/03/19 11:38:00;;;;;;;6.40;1.98;;;;;;;;;;4976679;28;20043;-70
2022/03/19 11:40:30;;;;;;;6.75;2.13;;;;;;;;;;4976945;28;20051;-69
2022/03/19 11:43:06;;;;;;;9.82;1.98;;;;;;;;;;4948225;28;20404;-70
2022/03/19 11:45:38;;;;;;;7.43;1.58;;;;;;;;;;4979775;28;20050;-70
2022/03/19 11:48:05;;;;;;;7.13;1.75;;;;;;;;;;4978393;28;20094;-69
2022/03/19 11:50:31;;;;;;;11.90;2.20;;;;;;;;;;4994045;28;20397;-68
2022/03/19 11:52:57;;;;;;;7.55;1.77;;;;;;;;;;4976546;28;20079;-68
2022/03/19 11:55:24;;;;;;;7.13;1.90;;;;;;;;;;4978277;28;20042;-69
2022/03/19 11:57:55;;;;;;;11.68;2.00;;;;;;;;;;4961575;28;20067;-67
2022/03/19 12:00:22;;;;;;;11.65;1.85;;;;;;;;;;4976329;28;20039;-68
2022/03/19 12:03:04;;;;;;;8.70;2.17;;;;;;;;;;4976355;28;20118;-68
2022/03/19 12:05:31;;;;;;;8.15;1.50;;;;;;;;;;4976703;28;20560;-68
2022/03/19 12:08:04;;;;;;;9.35;1.77;;;;;;;;;;4976299;28;20425;-67
2022/03/19 12:10:38;;;;;;;6.55;1.92;;;;;;;;;;4978192;28;20054;-67
2022/03/19 12:13:21;;;;;;;9.15;2.78;;;;;;;;;;4975800;28;20046;-71
2022/03/19 12:15:47;;;;;;;10.25;2.65;;;;;;;;;;4976363;28;20046;-67
2022/03/19 12:18:27;;;;;;;8.20;2.40;;;;;;;;;;4975264;28;20038;-68
2022/03/19 12:20:54;;;;;;;12.48;2.50;;;;;;;;;;4974766;28;20050;-69
2022/03/19 12:23:20;;;;;;;7.45;2.10;;;;;;;;;;4975966;28;20043;-70
2022/03/19 12:25:55;;;;;;;10.18;2.22;;;;;;;;;;4976343;28;20133;-71
2022/03/19 12:28:21;;;;;;;7.80;1.80;;;;;;;;;;4977034;28;20050;-67
2022/03/19 12:30:47;;;;;;;7.43;1.90;;;;;;;;;;4975252;28;20552;-68
2022/03/19 12:33:13;;;;;;;7.93;1.63;;;;;;;;;;4976000;28;20444;-67
2022/03/19 12:35:42;;;;;;;7.90;1.70;;;;;;;;;;4975803;28;20073;-71
2022/03/19 12:38:08;;;;;;;8.60;2.03;;;;;;;;;;4976217;28;20483;-67
2022/03/19 12:43:20;;;;;;;8.00;2.03;;;;;;;;;;4956599;29;20505;-68
2022/03/19 12:45:48;;;;;;;7.82;1.67;;;;;;;;;;4974983;28;20093;-69
2022/03/19 12:48:19;;;;;;;8.20;1.65;;;;;;;;;;4975314;28;20050;-68
2022/03/19 12:50:48;;;;;;;9.07;2.28;;;;;;;;;;4975116;28;20054;-67
2022/03/19 12:53:14;;;;;;;13.95;2.00;;;;;;;;;;4975887;28;20079;-68
2022/03/19 12:55:40;;;;;;;8.15;2.10;;;;;;;;;;4975466;28;20062;-68
2022/03/19 12:58:06;;;;;;;7.60;2.33;;;;;;;;;;4975552;28;20382;-69
2022/03/19 13:00:33;;;;;;;8.05;1.83;;;;;;;;;;4957183;28;20057;-70
2022/03/19 13:02:59;;;;;;;11.30;1.83;;;;;;;;;;4974497;28;20405;-71
2022/03/19 13:05:25;;;;;;;11.32;3.17;;;;;;;;;;4974648;28;20469;-69
2022/03/19 13:08:20;;;;;;;9.73;1.70;;;;;;;;;;4975270;28;20038;-70
2022/03/19 13:10:49;;;;;;;10.55;1.80;;;;;;;;;;4962025;28;20054;-71
2022/03/19 13:13:15;;;;;;;7.70;1.90;;;;;;;;;;4975315;28;20113;-70
2022/03/19 13:15:51;;;;;;;8.55;1.80;;;;;;;;;;4957485;28;20055;-72
2022/03/19 13:18:28;;;;;;;5.82;1.50;;;;;;;;;;4975468;28;20049;-71
2022/03/19 13:20:58;;;;;;;10.65;1.90;;;;;;;;;;4974693;28;20061;-69
2022/03/19 13:23:24;;;;;;;11.45;1.52;;;;;;;;;;4974770;28;20412;-69
2022/03/19 13:25:50;;;;;;;7.45;1.70;;;;;;;;;;4974545;28;20527;-69
2022/03/19 13:28:16;;;;;;;7.93;1.67;;;;;;;;;;4974563;28;20043;-71
2022/03/19 13:30:46;;;;;;;6.78;1.48;;;;;;;;;;4964168;28;20058;-70
2022/03/19 13:33:15;;;;;;;6.63;1.67;;;;;;;;;;4974520;28;20059;-70
2022/03/19 13:35:47;;;;;;;4.05;0.88;;;;;;;;;;4973259;28;20070;-70
2022/03/19 13:38:14;;;;;;;5.90;1.35;;;;;;;;;;4967381;28;20098;-70
2022/03/19 13:40:40;;;;;;;6.18;1.42;;;;;;;;;;4971608;28;20564;-71
2022/03/19 13:43:06;;;;;;;5.25;1.38;;;;;;;;;;4974582;28;20073;-70
2022/03/19 13:45:33;;;;;;;6.75;1.48;;;;;;;;;;4974132;28;20049;-70
2022/03/19 13:48:06;;;;;;;6.95;1.45;;;;;;;;;;4974763;28;20050;-71
2022/03/19 13:50:35;;;;;;;8.38;1.85;;;;;;;;;;4974367;28;20055;-70
2022/03/19 13:53:01;;;;;;;7.20;1.92;;;;;;;;;;4974280;28;20047;-70
2022/03/19 13:55:27;;;;;;;8.77;1.77;;;;;;;;;;4974375;28;20035;-69
2022/03/19 13:57:59;;;;;;;9.55;2.20;;;;;;;;;;4974481;28;20047;-70
2022/03/19 14:00:27;;;;;;;;;;;;;;;;;;4974412;28;20138;-70
2022/03/19 14:02:56;;;;;;;8.27;1.90;;;;;;;;;;4974250;28;20025;-70
2022/03/19 14:05:26;;;;;;;8.77;2.50;;;;;;;;;;4972978;28;20492;-71
2022/03/19 14:07:55;;;;;;;9.87;2.03;;;;;;;;;;4963674;28;20042;-70
2022/03/19 14:10:21;;;;;;;12.27;1.75;;;;;;;;;;4973569;28;20290;-70
2022/03/19 14:12:49;;;;;;;6.30;2.00;;;;;;;;;;4974291;28;20043;-70
2022/03/19 14:15:16;;;;;;;9.23;2.72;;;;;;;;;;4973744;28;20051;-70
2022/03/19 14:17:46;;;;;;;7.53;1.70;;;;;;;;;;4973972;28;20050;-71
2022/03/19 14:20:12;;;;;;;6.40;1.30;;;;;;;;;;4972985;28;20050;-71
2022/03/19 14:22:38;;;;;;;8.57;1.45;;;;;;;;;;4974059;28;20501;-70
2022/03/19 14:25:05;;;;;;;11.43;1.88;;;;;;;;;;4973972;28;20051;-70
2022/03/19 14:27:31;;;;;;;9.40;1.90;;;;;;;;;;4973720;28;20404;-70
2022/03/19 14:29:59;;;;;;;8.40;1.60;;;;;;;;;;4973605;28;20069;-70
2022/03/19 14:32:25;;;;;;;9.90;1.80;;;;;;;;;;4974075;28;20046;-71
2022/03/19 14:34:51;;;;;;;8.77;1.70;;;;;;;;;;4956412;28;20378;-72
2022/03/19 14:37:17;;;;;;;7.32;1.92;;;;;;;;;;4955367;28;20058;-70
2022/03/19 14:39:43;;;;;;;6.15;1.52;;;;;;;;;;4973253;28;20054;-71
2022/03/19 14:42:09;;;;;;;7.43;2.10;;;;;;;;;;4972122;28;20054;-69
2022/03/19 14:44:35;;;;;;;6.18;1.50;;;;;;;;;;4964709;28;20079;-70
2022/03/19 14:47:01;;;;;;;6.85;1.30;;;;;;;;;;4956691;28;20042;-70
2022/03/19 14:49:27;;;;;;;6.55;1.80;;;;;;;;;;4956489;28;20042;-70
2022/03/19 14:51:54;;;;;;;6.28;1.70;;;;;;;;;;4955957;28;20121;-70
2022/03/19 14:54:20;;;;;;;7.28;1.70;;;;;;;;;;4973569;28;20055;-69
2022/03/19 14:56:47;;;;;;;7.28;2.15;;;;;;;;;;4956204;28;20043;-69
2022/03/19 14:59:14;;;;;;;7.82;2.00;;;;;;;;;;4967448;28;20039;-70
2022/03/19 15:01:40;;;;;;;7.35;1.80;;;;;;;;;;4973215;28;20051;-70
2022/03/19 15:04:08;;;;;;;6.63;2.03;;;;;;;;;;4973203;28;20404;-72
2022/03/19 15:06:34;;;;;;;7.07;2.58;;;;;;;;;;4973568;28;20061;-69
2022/03/19 15:09:00;;;;;;;8.32;2.17;;;;;;;;;;4972595;28;20043;-68
2022/03/19 15:11:28;;;;;;;8.43;1.65;;;;;;;;;;4955922;28;20043;-70
2022/03/19 15:13:54;;;;;;;7.15;1.92;;;;;;;;;;4973538;28;20112;-70
2022/03/19 15:16:22;;;;;;;9.50;1.95;;;;;;;;;;4973541;28;20055;-70
2022/03/19 15:18:48;;;;;;;7.40;2.22;;;;;;;;;;4956681;28;20053;-70
2022/03/19 15:21:15;;;;;;;7.22;1.92;;;;;;;;;;4972084;28;20106;-70
2022/03/19 15:23:42;;;;;;;9.13;1.75;;;;;;;;;;4973690;28;20047;-69
2022/03/19 15:26:08;;;;;;;7.60;2.95;;;;;;;;;;4973174;28;20058;-69
2022/03/19 15:28:34;;;;;;;7.72;2.95;;;;;;;;;;4956206;28;20162;-70
2022/03/19 15:31:00;;;;;;;10.38;3.60;;;;;;;;;;4972936;28;20055;-70
2022/03/19 15:33:27;;;;;;;8.93;2.50;;;;;;;;;;4973701;28;20047;-69
2022/03/19 15:35:53;;;;;;;8.05;1.73;;;;;;;;;;4973362;28;20070;-70
2022/03/19 15:38:20;;;;;;;6.15;1.50;;;;;;;;;;4973679;28;20397;-70
2022/03/19 15:40:48;;;;;;;7.90;1.70;;;;;;;;;;4972777;28;20046;-69
2022/03/19 15:43:14;;;;;;;7.18;1.77;;;;;;;;;;4972984;28;20101;-70
2022/03/19 15:45:40;;;;;;;5.03;1.35;;;;;;;;;;4972960;28;20046;-71
2022/03/19 15:48:09;;;;;;;10.82;1.70;;;;;;;;;;4973482;28;20047;-70
2022/03/19 15:50:39;;;;;;;6.82;1.85;;;;;;;;;;4955817;28;20051;-70
2022/03/19 15:53:05;;;;;;;8.82;2.28;;;;;;;;;;4955038;28;20049;-69
2022/03/19 15:55:31;;;;;;;7.05;2.13;;;;;;;;;;4973060;28;20121;-69
2022/03/19 15:57:57;;;;;;;6.20;1.55;;;;;;;;;;4957742;28;20049;-69
2022/03/19 16:00:24;;;;;;;9.15;2.40;;;;;;;;;;4955578;28;20460;-70
2022/03/19 16:02:51;;;;;;;7.65;3.03;;;;;;;;;;4972172;28;20050;-70
2022/03/19 16:05:17;;;;;;;8.45;2.85;;;;;;;;;;4974431;28;20074;-69
2022/03/19 16:07:43;;;;;;;7.63;2.45;;;;;;;;;;4975099;28;20109;-70
2022/03/19 16:10:09;;;;;;;7.43;2.50;;;;;;;;;;4975650;28;20493;-69
2022/03/19 16:12:39;;;;;;;6.07;1.50;;;;;;;;;;4960040;28;20405;-69
2022/03/19 16:15:06;;;;;;;8.55;2.72;;;;;;;;;;4977652;28;20052;-69
2022/03/19 16:17:34;;;;;;;4.85;2.08;;;;;;;;;;4980310;28;20074;-69
2022/03/19 16:20:00;;;;;;;4.88;1.75;;;;;;;;;;4976139;28;20063;-70
2022/03/19 16:22:26;;;;;;;6.25;1.90;;;;;;;;;;4975555;28;20130;-70
2022/03/19 16:24:52;;;;;;;4.80;1.52;;;;;;;;;;4975634;28;20046;-70
2022/03/19 16:27:18;;;;;;;7.45;2.17;;;;;;;;;;4975736;28;20515;-70
2022/03/19 16:29:44;;;;;;;5.38;1.90;;;;;;;;;;4975625;28;20043;-69
2022/03/19 16:32:10;;;;;;;4.82;1.48;;;;;;;;;;4975941;28;20113;-70
2022/03/19 16:34:36;;;;;;;5.55;1.33;;;;;;;;;;4974075;28;20049;-69
2022/03/19 16:37:02;;;;;;;6.80;1.25;;;;;;;;;;4967836;28;20046;-69
2022/03/19 16:39:28;;;;;;;7.15;1.60;;;;;;;;;;4968068;28;20039;-70
2022/03/19 16:41:54;;;;;;;6.30;1.52;;;;;;;;;;4966853;28;20489;-70
2022/03/19 16:44:20;;;;;;;4.47;1.40;;;;;;;;;;4969191;28;20050;-69
2022/03/19 16:46:46;;;;;;;4.85;1.30;;;;;;;;;;4975614;28;20648;-70
2022/03/19 16:49:12;;;;;;;9.50;1.88;;;;;;;;;;4955988;28;20078;-69
2022/03/19 16:51:38;;;;;;;4.70;1.50;;;;;;;;;;4975316;28;20117;-69
2022/03/19 16:54:04;;;;;;;5.03;1.63;;;;;;;;;;4958130;28;20548;-70
2022/03/19 16:56:30;;;;;;;8.63;1.70;;;;;;;;;;4974922;28;20054;-69
2022/03/19 16:58:56;;;;;;;5.75;1.50;;;;;;;;;;4957825;28;20492;-70
2022/03/19 17:01:22;;;;;;;5.60;1.60;;;;;;;;;;4975551;28;20086;-70
2022/03/19 17:03:48;;;;;;;6.43;2.10;;;;;;;;;;4967514;28;20098;-70
2022/03/19 17:06:14;;;;;;;6.15;1.77;;;;;;;;;;4968580;28;20035;-70
2022/03/19 17:08:40;;;;;;;6.95;1.50;;;;;;;;;;4973916;28;20042;-69
2022/03/19 17:11:06;;;;;;;6.18;1.73;;;;;;;;;;4973974;28;20046;-69
2022/03/19 17:13:32;;;;;;;5.78;2.00;;;;;;;;;;4972772;28;20113;-69
2022/03/19 17:15:58;;;;;;;5.20;1.48;;;;;;;;;;4975020;28;20038;-69
2022/03/19 17:18:25;;;;;;;3.95;1.60;;;;;;;;;;4972426;28;20043;-69
2022/03/19 17:20:53;;;;;;;9.23;4.57;;;;;;;;;;4971732;28;20417;-69
2022/03/19 17:23:19;;;;;;;7.50;3.05;;;;;;;;;;4971506;28;20073;-70
2022/03/19 17:25:46;;;;;;;8.27;1.73;;;;;;;;;;4974220;28;20101;-69
2022/03/19 17:28:12;;;;;;;7.55;1.80;;;;;;;;;;4972898;28;20485;-71
2022/03/19 17:30:38;;;;;;;7.60;1.80;;;;;;;;;;4972927;28;20046;-71
2022/03/19 17:33:04;;;;;;;5.60;1.60;;;;;;;;;;4972156;28;20062;-69
2022/03/19 17:35:30;;;;;;;7.20;1.70;;;;;;;;;;4972669;28;20051;-68
2022/03/19 17:37:56;;;;;;;6.20;1.80;;;;;;;;;;4968940;28;20059;-69
2022/03/19 17:40:22;;;;;;;7.03;4.32;;;;;;;;;;4955586;28;20057;-70
2022/03/19 17:42:48;;;;;;;5.20;1.58;;;;;;;;;;4974103;28;20050;-71
2022/03/19 17:45:15;;;;;;;5.47;1.67;;;;;;;;;;4972181;28;20039;-70
2022/03/19 17:47:42;;;;;;;6.05;1.60;;;;;;;;;;4973475;28;20047;-70
2022/03/19 17:50:09;;;;;;;5.47;1.52;;;;;;;;;;4972373;28;20109;-70
2022/03/19 17:52:35;;;;;;;6.57;1.52;;;;;;;;;;4971813;28;20535;-70
2022/03/19 17:55:03;;;;;;;4.85;1.40;;;;;;;;;;4956233;28;20055;-70
2022/03/19 17:57:29;;;;;;;5.53;1.50;;;;;;;;;;4971982;28;20520;-69
2022/03/19 17:59:55;;;;;;;5.57;1.42;;;;;;;;;;4973428;28;20038;-69
2022/03/19 18:02:21;;;;;;;5.70;1.40;;;;;;;;;;4937077;28;20051;-70
2022/03/19 18:04:47;;;;;;;6.95;1.40;;;;;;;;;;4972741;28;20378;-71
2022/03/19 18:07:13;;;;;;;4.93;1.20;;;;;;;;;;4970976;28;20042;-71
2022/03/19 18:09:39;;;;;;;7.07;1.58;;;;;;;;;;4971322;28;20046;-71
2022/03/19 18:12:06;;;;;;;4.88;1.63;;;;;;;;;;4954773;28;20560;-71